Time;durP1;ratioP1;P1;durP2;ratioP2;P2;SDS_P1;SDS_P2;PMS_P1;PMS_P2;Temp;Humidity;BMP_temperature;BMP_pressure;BME280_temperature;BME280_humidity;BME280_pressure;Samples;Min_cycle;Max_cycle;Signal;HPM_P1;HPM_P2
2022/07/21 00:01:49;;;;;;;12.67;9.50;;;;;;;18.45;91.12;101584.47;5119610;27;20027;-87
2022/07/21 00:04:15;;;;;;;13.32;10.27;;;;;;;18.44;91.60;101592.97;5119320;27;20027;-87
2022/07/21 00:06:41;;;;;;;11.70;9.52;;;;;;;18.41;91.76;101589.66;5119718;27;20118;-88
2022/07/21 00:09:07;;;;;;;12.30;9.98;;;;;;;18.41;91.47;101594.31;5119482;27;20126;-87
2022/07/21 00:11:32;;;;;;;12.67;9.70;;;;;;;18.34;91.97;101602.72;5153595;27;20118;-88
2022/07/21 00:13:58;;;;;;;11.50;9.80;;;;;;;18.30;92.11;101597.97;5119375;27;20033;-87
2022/07/21 00:16:24;;;;;;;12.18;10.02;;;;;;;18.26;92.26;101594.06;5119292;27;20057;-87
2022/07/21 00:18:49;;;;;;;12.00;9.77;;;;;;;18.22;92.62;101593.72;5118949;27;20023;-87
2022/07/21 00:21:15;;;;;;;11.95;9.18;;;;;;;18.20;93.12;101590.38;5153711;27;20031;-88
2022/07/21 00:23:40;;;;;;;11.10;9.83;;;;;;;18.13;93.17;101590.56;5102510;27;20031;-87
2022/07/21 00:26:06;;;;;;;14.57;10.30;;;;;;;18.11;93.08;101594.63;5118816;27;20080;-87
2022/07/21 00:28:31;;;;;;;18.30;10.80;;;;;;;18.03;93.60;101598.63;5102709;27;20084;-87
2022/07/21 00:30:59;;;;;;;12.30;10.33;;;;;;;18.01;93.78;101604.34;5101790;27;20589;-87
2022/07/21 00:33:24;;;;;;;12.52;9.65;;;;;;;17.98;94.02;101596.63;5101640;27;20027;-87
2022/07/21 00:35:50;;;;;;;13.33;10.63;;;;;;;17.94;94.46;101584.47;5153213;27;20031;-87
2022/07/21 00:38:15;;;;;;;13.57;10.27;;;;;;;17.90;94.38;101598.94;5101927;27;20038;-87
2022/07/21 00:40:41;;;;;;;15.37;10.50;;;;;;;17.90;94.75;101599.75;5101822;27;20049;-87
2022/07/21 00:43:06;;;;;;;12.88;10.65;;;;;;;17.86;94.64;101599.41;5118747;27;20493;-87
2022/07/21 00:45:32;;;;;;;14.77;11.13;;;;;;;17.84;95.32;101607.03;5101235;27;20030;-87
2022/07/21 00:47:58;;;;;;;13.38;10.00;;;;;;;17.82;95.55;101605.59;5118722;27;20024;-87
2022/07/21 00:50:23;;;;;;;16.03;11.40;;;;;;;17.82;95.55;101600.09;5098849;28;20407;-87
2022/07/21 00:52:49;;;;;;;13.73;10.80;;;;;;;17.79;95.77;101590.47;5114934;28;20027;-87
2022/07/21 00:55:17;;;;;;;12.57;10.80;;;;;;;17.84;95.38;101606.19;5083254;27;20050;-87
2022/07/21 00:57:43;;;;;;;15.07;11.87;;;;;;;17.78;95.94;101598.94;5118214;27;20096;-87
2022/07/21 01:00:13;;;;;;;13.55;10.98;;;;;;;17.76;95.76;101599.19;5136280;27;20503;-87
2022/07/21 01:02:39;;;;;;;12.27;10.98;;;;;;;17.75;96.11;101597.53;5137260;27;20104;-87
2022/07/21 01:05:08;;;;;;;13.27;11.07;;;;;;;17.75;95.85;101592.03;5118322;27;20135;-87
2022/07/21 01:07:34;;;;;;;14.77;11.43;;;;;;;17.70;96.02;101583.69;5118890;27;20027;-87
2022/07/21 01:10:00;;;;;;;16.43;12.67;;;;;;;17.70;97.20;101578.19;5118026;27;20096;-87
2022/07/21 01:12:26;;;;;;;15.27;11.93;;;;;;;17.71;96.44;101568.91;5117973;27;20137;-87
2022/07/21 01:14:52;;;;;;;15.83;12.03;;;;;;;17.68;97.13;101567.47;5136290;27;20474;-87
2022/07/21 01:17:17;;;;;;;16.35;12.35;;;;;;;17.67;97.01;101574.06;5117790;27;20023;-88
2022/07/21 01:19:43;;;;;;;14.33;11.47;;;;;;;17.63;97.17;101572.06;5101406;27;20054;-87
2022/07/21 01:22:11;;;;;;;17.23;11.68;;;;;;;17.61;97.39;101565.97;5100764;27;20023;-87
2022/07/21 01:24:37;;;;;;;16.65;12.40;;;;;;;17.59;97.92;101565.38;5117613;27;20114;-87
2022/07/21 01:27:03;;;;;;;14.90;12.47;;;;;;;17.56;98.25;101574.94;5136079;27;20156;-87
2022/07/21 01:29:28;;;;;;;16.53;11.73;;;;;;;17.56;98.10;101569.44;5117561;27;20081;-87
2022/07/21 01:31:54;;;;;;;15.82;12.18;;;;;;;17.57;98.42;101564.78;5117754;27;20027;-87
2022/07/21 01:34:19;;;;;;;19.57;12.43;;;;;;;17.60;99.21;101578.00;5117189;27;20476;-87
2022/07/21 01:36:46;;;;;;;16.52;12.02;;;;;;;17.61;98.54;101580.53;5100756;27;20035;-87
2022/07/21 01:41:55;;;;;;;17.47;12.63;;;;;;;17.62;97.76;101578.63;5135888;27;20403;-87
2022/07/21 01:44:21;;;;;;;16.50;11.88;;;;;;;17.59;98.03;101571.69;5100235;27;20023;-88
2022/07/21 01:46:49;;;;;;;15.33;12.63;;;;;;;17.56;98.47;101580.41;5116681;27;20034;-87
2022/07/21 01:49:16;;;;;;;14.75;12.32;;;;;;;17.58;98.63;101574.69;5117508;27;20080;-87
2022/07/21 01:51:42;;;;;;;18.23;12.60;;;;;;;17.56;98.63;101574.09;5117403;27;20050;-87
2022/07/21 01:54:10;;;;;;;17.53;12.43;;;;;;;17.59;98.41;101574.44;5117070;27;20475;-87
2022/07/21 01:56:37;;;;;;;16.27;12.82;;;;;;;17.63;98.53;101583.84;5135293;27;20023;-87
2022/07/21 01:59:04;;;;;;;17.37;12.80;;;;;;;17.66;98.56;101585.28;5117459;27;20113;-87
2022/07/21 02:01:30;;;;;;;16.75;12.63;;;;;;;17.67;98.11;101575.94;5116611;27;20034;-87
2022/07/21 02:04:00;;;;;;;15.77;12.23;;;;;;;17.68;98.45;101578.44;5116999;27;20027;-87
2022/07/21 02:06:26;;;;;;;16.75;13.18;;;;;;;17.69;98.52;101571.06;5117177;27;20050;-87
2022/07/21 02:08:52;;;;;;;15.93;12.57;;;;;;;17.70;98.71;101565.34;5116803;27;20031;-87
2022/07/21 02:11:19;;;;;;;15.17;12.70;;;;;;;17.68;98.83;101574.88;5117668;27;20027;-87
2022/07/21 02:13:46;;;;;;;16.98;12.95;;;;;;;17.66;98.61;101579.78;5116505;27;20164;-87
2022/07/21 02:16:11;;;;;;;16.88;12.73;;;;;;;17.70;98.94;101579.06;5116626;27;20019;-87
2022/07/21 02:18:37;;;;;;;16.23;12.93;;;;;;;17.74;98.40;101573.06;5116687;27;20031;-87
2022/07/21 02:21:04;;;;;;;16.80;12.52;;;;;;;17.73;98.31;101575.00;5116877;27;20027;-87
2022/07/21 02:23:30;;;;;;;16.90;13.35;;;;;;;17.72;98.48;101567.81;5100111;27;20031;-87
2022/07/21 02:25:56;;;;;;;18.40;14.13;;;;;;;17.74;98.54;101573.88;5134985;27;20034;-87
2022/07/21 02:28:23;;;;;;;20.08;14.90;;;;;;;17.68;98.76;101570.22;5116679;28;20023;-87
2022/07/21 02:30:49;;;;;;;17.27;14.05;;;;;;;17.66;98.88;101561.41;5099985;27;20092;-87
2022/07/21 02:33:15;;;;;;;18.38;14.00;;;;;;;17.65;98.76;101561.66;5116266;27;20019;-87
2022/07/21 02:35:44;;;;;;;18.73;14.25;;;;;;;17.60;99.25;101559.66;5116565;27;20100;-87
2022/07/21 02:38:11;;;;;;;17.33;13.83;;;;;;;17.60;99.34;101565.13;5116723;28;20108;-87
2022/07/21 02:40:37;;;;;;;19.48;13.02;;;;;;;17.61;99.50;101560.47;5116502;28;20023;-87
2022/07/21 02:43:03;;;;;;;20.77;14.05;;;;;;;17.62;99.49;101562.16;5116452;28;20027;-87
2022/07/21 02:45:29;;;;;;;20.42;14.75;;;;;;;17.63;98.90;101567.38;5134401;27;20142;-87
2022/07/21 02:47:56;;;;;;;21.40;15.03;;;;;;;17.65;98.96;101567.97;5116383;28;20485;-87
2022/07/21 02:50:25;;;;;;;20.67;14.82;;;;;;;17.66;99.42;101561.41;5115957;27;20027;-87
2022/07/21 02:52:53;;;;;;;21.20;15.15;;;;;;;17.66;99.37;101555.91;5134658;28;20023;-87
2022/07/21 02:55:18;;;;;;;20.03;15.00;;;;;;;17.68;99.20;101566.66;5115728;28;20467;-87
2022/07/21 02:57:44;;;;;;;22.92;16.15;;;;;;;17.66;99.14;101558.66;5116167;28;20149;-87
2022/07/21 03:00:10;;;;;;;18.37;14.83;;;;;;;17.70;98.88;101561.75;5103635;27;20391;-87
2022/07/21 03:02:36;;;;;;;22.15;15.23;;;;;;;17.76;98.67;101565.41;5138656;27;20030;-87
2022/07/21 03:05:02;;;;;;;22.20;16.03;;;;;;;17.74;98.76;101559.34;5120363;27;20121;-88
2022/07/21 03:07:27;;;;;;;20.52;15.02;;;;;;;17.78;98.33;101555.03;5120373;27;20441;-87
2022/07/21 03:09:52;;;;;;;20.63;15.17;;;;;;;17.79;98.58;101552.06;5103283;27;20122;-87
2022/07/21 03:12:18;;;;;;;20.20;15.40;;;;;;;17.78;98.40;101546.81;5120607;27;20023;-87
2022/07/21 03:14:43;;;;;;;22.17;15.63;;;;;;;17.78;98.36;101546.81;5120140;27;20415;-88
2022/07/21 03:17:09;;;;;;;20.40;15.30;;;;;;;17.79;98.47;101549.31;5120443;27;20031;-87
2022/07/21 03:19:34;;;;;;;21.50;15.33;;;;;;;17.81;98.16;101544.38;5138370;27;20114;-87
2022/07/21 03:22:00;;;;;;;24.07;15.47;;;;;;;17.83;97.87;101553.22;5120116;27;20035;-88
2022/07/21 03:24:25;;;;;;;24.23;16.27;;;;;;;17.83;97.76;101549.63;5120267;27;20034;-87
2022/07/21 03:26:51;;;;;;;24.23;15.87;;;;;;;17.82;97.79;101546.06;5120579;27;20023;-87
2022/07/21 03:29:16;;;;;;;21.27;15.47;;;;;;;17.85;98.08;101547.50;5120873;27;20514;-87
2022/07/21 03:31:41;;;;;;;22.00;14.77;;;;;;;17.86;97.67;101555.47;5120228;27;20383;-87
2022/07/21 03:34:07;;;;;;;21.63;15.37;;;;;;;17.89;97.27;101551.38;5102951;27;20498;-87
2022/07/21 03:36:33;;;;;;;22.73;15.52;;;;;;;17.84;97.21;101551.31;5119824;27;20031;-87
2022/07/21 03:38:58;;;;;;;22.73;15.47;;;;;;;17.87;97.50;101556.28;5138010;27;20038;-87
2022/07/21 03:41:24;;;;;;;19.50;15.70;;;;;;;17.90;96.89;101555.84;5102936;27;20080;-87
2022/07/21 03:43:49;;;;;;;25.30;16.20;;;;;;;17.86;97.20;101554.63;5138414;27;20378;-87
2022/07/21 03:46:14;;;;;;;22.23;15.43;;;;;;;17.87;97.01;101559.03;5119749;27;20386;-87
2022/07/21 03:48:40;;;;;;;26.83;15.97;;;;;;;17.85;97.03;101559.28;5119287;27;20480;-87
2022/07/21 03:51:06;;;;;;;20.53;14.30;;;;;;;17.86;97.32;101554.63;5120405;27;20080;-87
2022/07/21 03:53:34;;;;;;;22.10;14.80;;;;;;;17.91;96.69;101567.63;5137660;27;20033;-87
2022/07/21 03:55:59;;;;;;;23.52;15.15;;;;;;;17.87;97.06;101565.34;5119455;27;20514;-87
2022/07/21 03:58:25;;;;;;;19.93;14.90;;;;;;;17.87;97.09;101559.03;5119386;27;20121;-87
2022/07/21 04:00:50;;;;;;;23.13;13.73;;;;;;;17.88;96.93;101564.28;5119318;27;20057;-87
2022/07/21 04:03:16;;;;;;;21.57;13.73;;;;;;;17.85;96.83;101559.28;5119426;27;20407;-87
2022/07/21 04:05:43;;;;;;;18.00;13.00;;;;;;;17.81;97.44;101568.28;5137643;27;20066;-87
2022/07/21 04:08:10;;;;;;;19.92;14.75;;;;;;;17.76;97.07;101577.25;5119176;27;20034;-87
2022/07/21 04:10:37;;;;;;;20.77;14.93;;;;;;;17.76;97.69;101584.63;5119237;27;20503;-87
2022/07/21 04:13:05;;;;;;;21.30;13.70;;;;;;;17.77;97.54;101584.38;5118863;27;20497;-87
2022/07/21 04:15:31;;;;;;;19.27;13.50;;;;;;;17.82;97.80;101592.72;5118792;27;20034;-86
2022/07/21 04:17:57;;;;;;;19.40;13.90;;;;;;;17.71;98.37;101586.19;5118873;27;20027;-87
2022/07/21 04:20:23;;;;;;;20.53;15.17;;;;;;;17.52;100.00;101587.47;5102293;27;20352;-87
2022/07/21 04:22:49;;;;;;;21.27;15.38;;;;;;;17.41;100.00;101580.13;5118876;27;20459;-87
2022/07/21 04:25:16;;;;;;;22.90;15.05;;;;;;;17.27;100.00;101576.81;5137235;27;20088;-87
2022/07/21 04:27:42;;;;;;;26.53;15.77;;;;;;;17.16;100.00;101576.59;5119041;27;20462;-87
2022/07/21 04:30:10;;;;;;;27.05;15.75;;;;;;;17.08;100.00;101576.13;5102221;27;20482;-86
2022/07/21 04:32:36;;;;;;;24.00;15.50;;;;;;;17.05;100.00;101572.00;5118714;27;20027;-87
2022/07/21 04:35:04;;;;;;;29.20;16.48;;;;;;;16.98;100.00;101568.53;5118714;27;20493;-87
2022/07/21 04:37:29;;;;;;;19.50;15.13;;;;;;;16.94;100.00;101575.56;5118609;27;20027;-86
2022/07/21 04:39:55;;;;;;;28.13;16.60;;;;;;;16.92;100.00;101562.13;5118854;27;20374;-87
2022/07/21 04:42:20;;;;;;;26.67;16.50;;;;;;;16.94;100.00;101570.91;5118734;27;20035;-87
2022/07/21 04:44:46;;;;;;;24.83;16.60;;;;;;;16.92;100.00;101564.00;5118072;27;20111;-87
2022/07/21 04:47:11;;;;;;;31.17;16.60;;;;;;;16.92;100.00;101575.81;5102380;27;20027;-87
2022/07/21 04:49:36;;;;;;;29.02;17.70;;;;;;;16.95;100.00;101569.84;5118927;27;20023;-86
2022/07/21 04:52:02;;;;;;;29.70;17.03;;;;;;;16.91;100.00;101581.53;5102019;27;20041;-86
2022/07/21 04:54:28;;;;;;;29.77;18.80;;;;;;;16.91;100.00;101581.53;5097760;28;20484;-86
2022/07/21 04:56:53;;;;;;;27.48;18.55;;;;;;;16.86;100.00;101584.97;5114759;28;20058;-86
2022/07/21 04:59:19;;;;;;;26.77;17.63;;;;;;;16.83;100.00;101578.06;5083901;27;20188;-86
2022/07/21 05:01:44;;;;;;;32.93;19.03;;;;;;;16.82;100.00;101575.56;5118418;27;20046;-86
2022/07/21 05:04:10;;;;;;;27.05;17.48;;;;;;;16.81;100.00;101577.44;5117960;27;20083;-86
2022/07/21 05:06:35;;;;;;;25.13;16.07;;;;;;;16.79;100.00;101587.00;5118117;27;20027;-90
2022/07/21 05:09:06;;;;;;;32.07;17.03;;;;;;;16.82;100.00;101579.13;5137216;27;20080;-93
2022/07/21 05:11:35;;;;;;;31.90;18.63;;;;;;;16.96;100.00;101585.22;5119194;27;20031;-92
2022/07/21 05:14:01;;;;;;;27.60;17.77;;;;;;;17.04;100.00;101591.41;5118636;27;20027;-93
2022/07/21 05:16:26;;;;;;;28.47;16.57;;;;;;;17.00;100.00;101572.69;5118341;27;20489;-93
2022/07/21 05:18:52;;;;;;;23.67;15.40;;;;;;;17.01;100.00;101579.84;5137214;27;20027;-93
2022/07/21 05:21:17;;;;;;;26.07;15.17;;;;;;;17.05;100.00;101579.38;5135702;27;20060;-92
2022/07/21 05:23:42;;;;;;;24.03;14.90;;;;;;;17.03;100.00;101576.88;5118273;27;20019;-95
2022/07/21 05:26:08;;;;;;;21.70;14.37;;;;;;;17.01;100.00;101579.03;5119060;27;20030;-92
2022/07/21 05:28:33;;;;;;;23.70;15.15;;;;;;;17.01;100.00;101573.53;5102408;27;20059;-93
2022/07/21 05:30:59;;;;;;;23.50;14.87;;;;;;;17.03;100.00;101574.13;5118924;27;20035;-94
2022/07/21 05:33:24;;;;;;;21.10;13.83;;;;;;;17.01;100.00;101571.63;5114974;28;20032;-94
2022/07/21 05:35:52;;;;;;;23.73;14.10;;;;;;;17.04;100.00;101566.72;5114892;28;20361;-93
2022/07/21 05:38:17;;;;;;;25.20;14.90;;;;;;;17.07;100.00;101569.81;5100517;27;20288;-92
2022/07/21 05:40:43;;;;;;;22.92;14.45;;;;;;;17.11;100.00;101571.03;5118219;27;20027;-91
2022/07/21 05:43:11;;;;;;;28.27;14.20;;;;;;;17.12;100.00;101572.66;5117874;27;20113;-93
2022/07/21 05:45:38;;;;;;;20.73;14.50;;;;;;;17.06;100.00;101559.09;5118192;27;20062;-90
2022/07/21 05:48:04;;;;;;;24.98;14.98;;;;;;;17.07;100.00;101567.09;5135923;27;20027;-92
2022/07/21 05:50:32;;;;;;;25.30;15.10;;;;;;;17.08;100.00;101567.91;5118470;27;20095;-91
2022/07/21 05:53:01;;;;;;;26.23;15.10;;;;;;;17.08;100.00;101557.78;5117876;27;20038;-91
2022/07/21 05:55:29;;;;;;;25.27;15.52;;;;;;;17.15;100.00;101569.44;5100386;27;20515;-92
2022/07/21 05:57:55;;;;;;;24.88;17.08;;;;;;;17.17;100.00;101569.22;5116959;27;20055;-92
2022/07/21 06:00:24;;;;;;;33.13;16.20;;;;;;;17.19;100.00;101575.28;5117325;27;20149;-91
2022/07/21 06:02:50;;;;;;;29.48;16.73;;;;;;;17.14;100.00;101580.66;5118074;27;20035;-91
2022/07/21 06:05:18;;;;;;;32.47;17.50;;;;;;;17.24;100.00;101572.63;5117265;27;20035;-91
2022/07/21 06:07:44;;;;;;;29.30;17.20;;;;;;;17.29;100.00;101580.16;5117110;27;20478;-92
2022/07/21 06:10:17;;;;;;;31.00;17.80;;;;;;;17.39;100.00;101582.25;5136424;27;20038;-91
2022/07/21 06:12:46;;;;;;;29.73;17.43;;;;;;;17.41;100.00;101580.13;5117788;27;20023;-91
2022/07/21 06:15:20;;;;;;;35.33;18.40;;;;;;;17.59;100.00;101570.88;5116449;27;20454;-90
2022/07/21 06:17:48;;;;;;;28.92;17.35;;;;;;;17.71;100.00;101561.50;5117396;27;20023;-91
2022/07/21 06:20:14;;;;;;;36.30;18.65;;;;;;;17.84;100.00;101562.28;5117061;27;20455;-91
2022/07/21 06:22:49;;;;;;;35.93;19.13;;;;;;;17.93;100.00;101568.22;5116824;27;20035;-90
2022/07/21 06:25:16;;;;;;;33.78;18.83;;;;;;;18.21;100.00;101570.91;5084617;27;20542;-90
2022/07/21 06:27:43;;;;;;;34.97;20.00;;;;;;;18.40;97.95;101563.25;5100418;27;20049;-91
2022/07/21 06:30:09;;;;;;;42.70;19.90;;;;;;;18.57;97.37;101552.25;5117408;27;20443;-92
2022/07/21 06:32:35;;;;;;;33.30;18.97;;;;;;;18.87;96.20;101563.97;5117158;27;20024;-92
2022/07/21 06:35:00;;;;;;;36.03;18.77;;;;;;;19.10;94.84;101551.88;5117251;27;20459;-92
2022/07/21 06:37:26;;;;;;;30.87;18.87;;;;;;;19.22;91.98;101557.25;5117591;27;20046;-92
2022/07/21 06:39:52;;;;;;;27.25;18.50;;;;;;;19.32;91.55;101564.81;5136733;27;20035;-92
2022/07/21 06:42:17;;;;;;;31.33;18.33;;;;;;;19.37;91.31;101568.47;5135787;27;20474;-92
2022/07/21 06:44:42;;;;;;;32.73;17.57;;;;;;;19.42;90.72;101570.44;5117101;27;20031;-91
2022/07/21 06:47:08;;;;;;;32.20;19.10;;;;;;;19.53;90.09;101574.13;5117480;28;20024;-92
2022/07/21 06:49:33;;;;;;;36.67;18.80;;;;;;;19.70;89.57;101577.63;5117479;27;20740;-92
2022/07/21 06:51:59;;;;;;;31.17;17.10;;;;;;;19.73;88.49;101581.78;5099928;28;20130;-92
2022/07/21 06:54:25;;;;;;;32.08;18.52;;;;;;;19.64;88.05;101579.50;5117026;28;20081;-91
2022/07/21 06:56:50;;;;;;;34.30;18.20;;;;;;;19.64;88.31;101576.75;5116786;28;20126;-92
2022/07/21 06:59:18;;;;;;;33.00;18.05;;;;;;;19.61;88.05;101590.19;5116930;28;20030;-91
2022/07/21 07:01:44;;;;;;;29.33;17.17;;;;;;;19.56;88.25;101581.88;5100315;28;20099;-92
2022/07/21 07:04:09;;;;;;;30.48;17.40;;;;;;;19.54;88.88;101590.38;5117143;28;20039;-92
2022/07/21 07:06:35;;;;;;;33.60;18.00;;;;;;;19.40;88.41;101592.72;5135209;28;20028;-93
2022/07/21 07:09:00;;;;;;;33.00;17.75;;;;;;;19.28;89.26;101592.00;5100176;28;20122;-91
2022/07/21 07:11:26;;;;;;;34.03;17.57;;;;;;;19.22;89.88;101615.03;5134884;28;20076;-92
2022/07/21 07:13:51;;;;;;;32.30;17.67;;;;;;;19.13;89.84;101605.56;5116909;28;20031;-91
2022/07/21 07:16:17;;;;;;;29.80;17.03;;;;;;;18.98;90.11;101606.19;5116483;28;20106;-91
2022/07/21 07:18:42;;;;;;;30.73;18.15;;;;;;;18.86;91.50;101595.31;5099577;28;20475;-91
2022/07/21 07:21:07;;;;;;;33.70;18.27;;;;;;;18.82;91.55;101591.34;5116949;28;20038;-91
2022/07/21 07:23:33;;;;;;;31.80;18.67;;;;;;;18.80;92.00;101602.59;5135176;28;20478;-92
2022/07/21 07:25:58;;;;;;;28.00;19.00;;;;;;;18.79;92.45;101598.19;5116360;28;20020;-91
2022/07/21 07:28:24;;;;;;;26.17;16.60;;;;;;;18.85;92.19;101599.09;5100625;28;20058;-92
2022/07/21 07:30:49;;;;;;;29.07;18.07;;;;;;;18.91;92.87;101598.97;5116731;28;20276;-92
2022/07/21 07:33:15;;;;;;;29.20;18.00;;;;;;;19.02;91.95;101599.94;5116753;28;20027;-91
2022/07/21 07:35:40;;;;;;;35.08;18.60;;;;;;;18.83;94.01;101593.03;5116416;28;20019;-92
2022/07/21 07:38:06;;;;;;;37.17;18.20;;;;;;;18.48;98.63;101602.38;5117106;28;20031;-92
2022/07/21 07:40:32;;;;;;;37.90;19.30;;;;;;;18.21;100.00;101606.63;5117209;28;20386;-92
2022/07/21 07:42:58;;;;;;;44.28;18.70;;;;;;;17.94;100.00;101600.06;5099863;28;20068;-92
2022/07/21 07:45:23;;;;;;;46.63;21.25;;;;;;;17.69;100.00;101613.06;5118503;27;20042;-91
2022/07/21 07:47:49;;;;;;;36.13;20.77;;;;;;;17.56;100.00;101607.84;5138161;27;20035;-91
2022/07/21 07:50:15;;;;;;;30.25;18.55;;;;;;;17.40;100.00;101606.69;5102983;27;20031;-89
2022/07/21 07:52:42;;;;;;;32.20;18.20;;;;;;;17.32;100.00;101605.19;5119564;27;20027;-89
2022/07/21 07:55:10;;;;;;;32.30;17.67;;;;;;;17.29;100.00;101610.34;5137962;27;20058;-88
2022/07/21 07:57:36;;;;;;;24.77;14.73;;;;;;;17.21;100.00;101600.53;5102693;27;20031;-89
2022/07/21 08:00:08;;;;;;;21.02;13.77;;;;;;;17.14;100.00;101603.44;5119671;27;20027;-86
2022/07/21 08:02:34;;;;;;;26.80;15.30;;;;;;;17.06;100.00;101608.44;5102782;27;20055;-84
2022/07/21 08:04:59;;;;;;;24.17;15.68;;;;;;;17.09;100.00;101607.97;5137535;27;20046;-86
2022/07/21 08:07:27;;;;;;;30.30;17.40;;;;;;;17.04;100.00;101618.81;5103000;27;20027;-86
2022/07/21 08:09:53;;;;;;;26.98;16.35;;;;;;;17.01;100.00;101615.47;5119758;27;20035;-85
2022/07/21 08:12:18;;;;;;;28.70;14.80;;;;;;;17.00;100.00;101615.72;5119165;27;20172;-86
2022/07/21 08:14:44;;;;;;;23.40;14.63;;;;;;;16.94;100.00;101613.94;5137452;27;20027;-86
2022/07/21 08:17:09;;;;;;;24.63;13.83;;;;;;;16.92;100.00;101607.84;5119148;27;20150;-86
2022/07/21 08:19:35;;;;;;;21.10;14.47;;;;;;;16.96;100.00;101609.03;5085203;27;20297;-87
2022/07/21 08:22:01;;;;;;;20.53;13.33;;;;;;;16.98;100.00;101620.63;5101629;27;20027;-86
2022/07/21 08:24:26;;;;;;;19.88;13.25;;;;;;;16.98;100.00;101617.88;5101908;27;20031;-83
2022/07/21 08:26:52;;;;;;;20.87;12.60;;;;;;;16.95;100.00;101621.09;5137245;27;20027;-87
2022/07/21 08:29:17;;;;;;;22.47;12.37;;;;;;;16.96;100.00;101612.66;5137506;27;20079;-87
2022/07/21 08:31:43;;;;;;;31.77;14.13;;;;;;;16.98;100.00;101618.72;5101755;27;20038;-88
2022/07/21 08:34:08;;;;;;;23.57;14.27;;;;;;;16.98;100.00;101610.47;5137365;27;20038;-88
2022/07/21 08:36:34;;;;;;;25.93;14.07;;;;;;;17.04;100.00;101608.69;5136651;27;20075;-88
2022/07/21 08:38:59;;;;;;;20.63;13.60;;;;;;;17.04;100.00;101616.91;5118403;27;20055;-88
2022/07/21 08:41:25;;;;;;;23.35;13.57;;;;;;;17.01;100.00;101615.47;5101643;27;20088;-88
2022/07/21 08:43:50;;;;;;;25.43;14.50;;;;;;;17.03;100.00;101622.66;5101311;27;20534;-87
2022/07/21 08:46:18;;;;;;;27.08;14.55;;;;;;;16.97;100.00;101613.47;5118217;27;20027;-88
2022/07/21 08:48:46;;;;;;;28.33;15.33;;;;;;;17.04;100.00;101621.53;5119049;27;20031;-88
2022/07/21 08:51:13;;;;;;;31.40;16.20;;;;;;;17.10;100.00;101626.91;5136504;27;20098;-88
2022/07/21 08:53:38;;;;;;;31.00;17.10;;;;;;;17.05;100.00;101628.72;5117737;27;20031;-87
2022/07/21 08:56:04;;;;;;;34.00;18.10;;;;;;;17.10;100.00;101629.66;5136562;27;20035;-87
2022/07/21 08:58:29;;;;;;;32.50;18.10;;;;;;;17.15;100.00;101631.69;5118265;27;20035;-85
2022/07/21 09:00:55;;;;;;;33.07;18.50;;;;;;;17.17;100.00;101627.63;5117952;27;20035;-87
2022/07/21 09:03:20;;;;;;;34.00;18.83;;;;;;;17.16;100.00;101625.94;5118268;27;20114;-86
2022/07/21 09:06:16;;;;;;;34.08;17.55;;;;;;;17.19;100.00;101628.22;5118208;27;20118;-87
2022/07/21 09:08:47;;;;;;;29.63;17.50;;;;;;;17.28;100.00;101625.09;5097652;27;20039;-85
2022/07/21 09:11:23;;;;;;;28.70;16.70;;;;;;;17.30;100.00;101618.31;5136166;27;20398;-85
2022/07/21 09:14:07;;;;;;;26.27;15.88;;;;;;;17.28;100.00;101634.16;5117959;27;20038;-86
2022/07/21 09:16:34;;;;;;;29.42;17.55;;;;;;;17.27;100.00;101635.25;5117997;27;20050;-86
2022/07/21 09:19:00;;;;;;;26.98;15.52;;;;;;;17.22;100.00;101637.06;5117629;27;20027;-86
2022/07/21 09:21:25;;;;;;;27.70;17.03;;;;;;;17.17;100.00;101627.63;5117745;27;20026;-86
2022/07/21 09:23:51;;;;;;;33.43;16.30;;;;;;;17.28;100.00;101630.59;5101521;27;20370;-86
2022/07/21 09:26:16;;;;;;;26.73;16.20;;;;;;;17.23;100.00;101628.56;5101066;27;20292;-86
2022/07/21 09:28:42;;;;;;;25.27;16.57;;;;;;;17.27;100.00;101639.88;5117271;27;20440;-86
2022/07/21 09:31:10;;;;;;;24.33;15.00;;;;;;;17.23;100.00;101639.56;5118300;27;20118;-86
2022/07/21 09:33:41;;;;;;;20.88;14.00;;;;;;;17.22;100.00;101646.09;5118436;27;20031;-87
2022/07/21 09:36:18;;;;;;;21.15;14.20;;;;;;;17.19;100.00;101649.31;5118451;27;20092;-87
2022/07/21 09:38:44;;;;;;;16.52;11.93;;;;;;;17.12;100.00;101652.19;5117403;27;20035;-86
2022/07/21 09:41:15;;;;;;;13.87;11.13;;;;;;;17.04;100.00;101646.22;5117355;27;20042;-87
2022/07/21 09:43:51;;;;;;;13.10;10.55;;;;;;;16.95;100.00;101645.78;5117517;27;20023;-87
2022/07/21 09:46:25;;;;;;;16.25;11.20;;;;;;;16.97;100.00;101646.34;5135377;27;20080;-86
2022/07/21 09:48:58;;;;;;;18.17;11.23;;;;;;;16.92;100.00;101649.81;5117164;27;20035;-86
2022/07/21 09:51:32;;;;;;;13.75;10.73;;;;;;;16.90;100.00;101648.38;5135283;27;20034;-87
2022/07/21 09:54:06;;;;;;;15.77;11.73;;;;;;;16.88;100.00;101654.09;5113188;28;20515;-87
2022/07/21 09:56:37;;;;;;;16.40;11.68;;;;;;;16.84;100.00;101661.94;5117313;27;20486;-88
2022/07/21 09:59:05;;;;;;;17.00;12.07;;;;;;;16.82;100.00;101652.28;5117419;27;20079;-87
2022/07/21 10:01:31;;;;;;;16.27;12.33;;;;;;;16.82;100.00;101664.06;5135041;27;20047;-88
2022/07/21 10:03:58;;;;;;;19.75;13.65;;;;;;;16.82;100.00;101666.81;5134857;27;20035;-88
2022/07/21 10:06:29;;;;;;;20.95;14.90;;;;;;;16.88;100.00;101665.06;5135277;27;20027;-88
2022/07/21 10:08:57;;;;;;;20.17;14.38;;;;;;;16.95;100.00;101662.22;5116739;27;20117;-88
2022/07/21 10:11:23;;;;;;;21.05;15.20;;;;;;;17.01;100.00;101680.44;5100020;27;20049;-88
2022/07/21 10:13:49;;;;;;;19.13;15.17;;;;;;;16.96;100.00;101669.34;5100351;27;20049;-88
2022/07/21 10:16:15;;;;;;;22.13;15.48;;;;;;;17.11;100.00;101674.34;5099912;27;20471;-88
2022/07/21 10:18:53;;;;;;;22.20;17.15;;;;;;;17.19;100.00;101680.31;5117691;27;20034;-87
2022/07/21 10:21:36;;;;;;;22.93;16.43;;;;;;;17.16;100.00;101674.47;5134985;27;20423;-88
2022/07/21 10:24:02;;;;;;;27.35;17.08;;;;;;;17.17;100.00;101681.66;5117562;27;20027;-87
2022/07/21 10:26:28;;;;;;;20.98;15.32;;;;;;;17.24;100.00;101684.25;5116641;27;20379;-88
2022/07/21 10:28:53;;;;;;;23.23;17.60;;;;;;;17.34;100.00;101685.31;5134757;27;20391;-88
2022/07/21 10:31:22;;;;;;;22.90;17.20;;;;;;;17.39;100.00;101686.50;5135201;27;20035;-89
2022/07/21 10:33:50;;;;;;;27.67;18.13;;;;;;;17.36;100.00;101702.38;5135012;27;20106;-88
2022/07/21 10:36:27;;;;;;;26.10;17.77;;;;;;;17.44;100.00;101703.91;5116241;27;20045;-90
2022/07/21 10:39:17;;;;;;;29.45;18.05;;;;;;;17.52;100.00;101698.06;5116669;27;20312;-89
2022/07/21 10:41:56;;;;;;;24.63;18.38;;;;;;;17.43;100.00;101698.66;5117279;27;20088;-89
2022/07/21 10:44:28;;;;;;;20.07;14.10;;;;;;;17.27;100.00;101706.56;5134760;27;20031;-89
2022/07/21 10:47:10;;;;;;;24.45;16.13;;;;;;;17.24;100.00;101701.53;5116620;28;20474;-89
2022/07/21 10:49:46;;;;;;;22.33;15.95;;;;;;;17.17;100.00;101704.41;5116758;27;20058;-89
2022/07/21 10:52:41;;;;;;;22.05;13.82;;;;;;;17.10;100.00;101711.09;5116465;27;20080;-90
2022/07/21 10:55:09;;;;;;;20.13;13.07;;;;;;;17.08;100.00;101713.22;5115858;28;20043;-90
2022/07/21 10:57:37;;;;;;;17.13;12.40;;;;;;;16.93;100.00;101706.31;5116551;28;20114;-90
2022/07/21 11:00:22;;;;;;;17.73;12.70;;;;;;;16.91;100.00;101719.41;5134762;28;20108;-91
2022/07/21 11:02:53;;;;;;;20.80;12.98;;;;;;;16.89;100.00;101707.84;5116038;28;20089;-90
2022/07/21 11:05:18;;;;;;;19.50;12.95;;;;;;;16.80;100.00;101703.75;5116347;28;20374;-86
2022/07/21 11:08:12;;;;;;;18.60;12.73;;;;;;;16.77;100.00;101712.44;5116007;28;20036;-86